sensor_id;sensor_type;location;lat;lon;timestamp;pressure;altitude;pressure_sealevel;temperature;humidity
74403;BME280;62837;51.082;13.744;2023-02-28T00:01:38;101790.52;;;1.30;70.81
74403;BME280;62837;51.082;13.744;2023-02-28T00:04:09;101790.08;;;1.35;71.06
74403;BME280;62837;51.082;13.744;2023-02-28T00:06:39;101789.21;;;1.38;70.38
74403;BME280;62837;51.082;13.744;2023-02-28T00:09:11;101788.16;;;1.40;70.53
74403;BME280;62837;51.082;13.744;2023-02-28T00:11:42;101782.59;;;1.44;70.97
74403;BME280;62837;51.082;13.744;2023-02-28T00:14:12;101783.83;;;1.47;71.19
74403;BME280;62837;51.082;13.744;2023-02-28T00:16:43;101781.68;;;1.45;69.43
74403;BME280;62837;51.082;13.744;2023-02-28T00:19:14;101784.34;;;1.39;69.19
74403;BME280;62837;51.082;13.744;2023-02-28T00:21:45;101781.71;;;1.35;69.91
74403;BME280;62837;51.082;13.744;2023-02-28T00:24:15;101782.29;;;1.31;69.48
74403;BME280;62837;51.082;13.744;2023-02-28T00:26:46;101780.83;;;1.28;70.00
74403;BME280;62837;51.082;13.744;2023-02-28T00:29:17;101780.37;;;1.24;69.37
74403;BME280;62837;51.082;13.744;2023-02-28T00:31:47;101776.56;;;1.19;69.72
74403;BME280;62837;51.082;13.744;2023-02-28T00:34:18;101771.88;;;1.16;69.36
74403;BME280;62837;51.082;13.744;2023-02-28T00:36:49;101773.51;;;1.09;69.16
74403;BME280;62837;51.082;13.744;2023-02-28T00:39:20;101769.18;;;1.02;69.72
74403;BME280;62837;51.082;13.744;2023-02-28T00:41:51;101772.02;;;0.99;69.84
74403;BME280;62837;51.082;13.744;2023-02-28T00:44:21;101775.90;;;0.97;70.17
74403;BME280;62837;51.082;13.744;2023-02-28T00:46:52;101777.78;;;0.96;70.28
74403;BME280;62837;51.082;13.744;2023-02-28T00:49:26;101776.84;;;0.96;70.40
74403;BME280;62837;51.082;13.744;2023-02-28T00:51:57;101779.56;;;0.98;69.98
74403;BME280;62837;51.082;13.744;2023-02-28T00:54:28;101782.21;;;0.99;69.92
74403;BME280;62837;51.082;13.744;2023-02-28T00:56:59;101786.06;;;1.00;69.79
74403;BME280;62837;51.082;13.744;2023-02-28T00:59:30;101785.08;;;1.00;69.52
74403;BME280;62837;51.082;13.744;2023-02-28T01:02:00;101783.08;;;1.01;69.57
74403;BME280;62837;51.082;13.744;2023-02-28T01:04:31;101781.23;;;0.99;69.54
74403;BME280;62837;51.082;13.744;2023-02-28T01:07:03;101775.13;;;0.96;69.58
74403;BME280;62837;51.082;13.744;2023-02-28T01:09:34;101781.00;;;0.95;69.48
74403;BME280;62837;51.082;13.744;2023-02-28T01:12:05;101780.38;;;0.89;69.52
74403;BME280;62837;51.082;13.744;2023-02-28T01:14:36;101779.63;;;0.85;70.35
74403;BME280;62837;51.082;13.744;2023-02-28T01:17:07;101780.42;;;0.80;70.22
74403;BME280;62837;51.082;13.744;2023-02-28T01:19:38;101774.55;;;0.77;70.47
74403;BME280;62837;51.082;13.744;2023-02-28T01:22:08;101773.65;;;0.72;70.24
74403;BME280;62837;51.082;13.744;2023-02-28T01:24:39;101774.02;;;0.66;70.28
74403;BME280;62837;51.082;13.744;2023-02-28T01:27:14;101780.00;;;0.63;70.62
74403;BME280;62837;51.082;13.744;2023-02-28T01:29:45;101777.40;;;0.64;70.64
74403;BME280;62837;51.082;13.744;2023-02-28T01:32:16;101779.05;;;0.64;70.77
74403;BME280;62837;51.082;13.744;2023-02-28T01:34:46;101776.59;;;0.65;70.73
74403;BME280;62837;51.082;13.744;2023-02-28T01:37:17;101776.55;;;0.65;70.85
74403;BME280;62837;51.082;13.744;2023-02-28T01:39:48;101775.75;;;0.66;70.79
74403;BME280;62837;51.082;13.744;2023-02-28T01:42:18;101776.14;;;0.66;70.72
74403;BME280;62837;51.082;13.744;2023-02-28T01:45:14;101776.52;;;0.60;70.77
74403;BME280;62837;51.082;13.744;2023-02-28T01:47:49;101775.21;;;0.51;70.90
74403;BME280;62837;51.082;13.744;2023-02-28T01:50:25;101771.66;;;0.49;70.99
74403;BME280;62837;51.082;13.744;2023-02-28T01:53:00;101773.56;;;0.46;71.15
74403;BME280;62837;51.082;13.744;2023-02-28T01:55:34;101770.59;;;0.41;71.00
74403;BME280;62837;51.082;13.744;2023-02-28T01:58:07;101768.48;;;0.39;71.39
74403;BME280;62837;51.082;13.744;2023-02-28T02:00:38;101767.77;;;0.39;71.37
74403;BME280;62837;51.082;13.744;2023-02-28T02:03:14;101769.54;;;0.39;71.09
74403;BME280;62837;51.082;13.744;2023-02-28T02:05:48;101769.67;;;0.36;71.25
74403;BME280;62837;51.082;13.744;2023-02-28T02:08:21;101764.09;;;0.36;71.49
74403;BME280;62837;51.082;13.744;2023-02-28T02:10:54;101765.05;;;0.37;71.58
74403;BME280;62837;51.082;13.744;2023-02-28T02:16:17;101763.48;;;0.38;70.99
74403;BME280;62837;51.082;13.744;2023-02-28T02:18:57;101763.75;;;0.34;70.89
74403;BME280;62837;51.082;13.744;2023-02-28T02:21:49;101769.04;;;0.32;71.35
74403;BME280;62837;51.082;13.744;2023-02-28T02:24:51;101764.94;;;0.35;71.31
74403;BME280;62837;51.082;13.744;2023-02-28T02:27:41;101757.93;;;0.38;71.30
74403;BME280;62837;51.082;13.744;2023-02-28T02:33:30;101757.48;;;0.42;71.02
74403;BME280;62837;51.082;13.744;2023-02-28T02:36:14;101757.56;;;0.38;71.30
74403;BME280;62837;51.082;13.744;2023-02-28T02:38:50;101760.30;;;0.34;71.53
74403;BME280;62837;51.082;13.744;2023-02-28T02:41:27;101749.16;;;0.34;71.35
74403;BME280;62837;51.082;13.744;2023-02-28T02:44:06;101753.43;;;0.33;71.40
74403;BME280;62837;51.082;13.744;2023-02-28T02:46:40;101755.48;;;0.32;71.37
74403;BME280;62837;51.082;13.744;2023-02-28T02:49:19;101755.00;;;0.30;71.17
74403;BME280;62837;51.082;13.744;2023-02-28T02:51:54;101757.79;;;0.27;71.46
74403;BME280;62837;51.082;13.744;2023-02-28T02:54:29;101758.10;;;0.28;71.96
74403;BME280;62837;51.082;13.744;2023-02-28T02:57:03;101760.23;;;0.28;71.63
74403;BME280;62837;51.082;13.744;2023-02-28T02:59:36;101760.34;;;0.29;72.16
74403;BME280;62837;51.082;13.744;2023-02-28T03:02:12;101754.77;;;0.27;71.74
74403;BME280;62837;51.082;13.744;2023-02-28T03:04:48;101765.30;;;0.30;71.14
74403;BME280;62837;51.082;13.744;2023-02-28T03:07:23;101764.88;;;0.22;70.96
74403;BME280;62837;51.082;13.744;2023-02-28T03:09:55;101768.30;;;0.15;71.27
74403;BME280;62837;51.082;13.744;2023-02-28T03:12:32;101766.20;;;0.13;71.55
74403;BME280;62837;51.082;13.744;2023-02-28T03:15:07;101765.71;;;0.11;71.46
74403;BME280;62837;51.082;13.744;2023-02-28T03:17:55;101764.97;;;0.07;71.48
74403;BME280;62837;51.082;13.744;2023-02-28T03:20:43;101765.27;;;0.06;71.50
74403;BME280;62837;51.082;13.744;2023-02-28T03:23:21;101767.90;;;0.01;71.15
74403;BME280;62837;51.082;13.744;2023-02-28T03:25:59;101766.43;;;-0.05;71.24
74403;BME280;62837;51.082;13.744;2023-02-28T03:28:40;101763.85;;;-0.12;71.32
74403;BME280;62837;51.082;13.744;2023-02-28T03:31:18;101761.02;;;-0.17;71.51
74403;BME280;62837;51.082;13.744;2023-02-28T03:33:54;101763.42;;;-0.23;71.90
74403;BME280;62837;51.082;13.744;2023-02-28T03:36:29;101760.00;;;-0.25;71.70
74403;BME280;62837;51.082;13.744;2023-02-28T03:39:03;101766.26;;;-0.28;71.84
74403;BME280;62837;51.082;13.744;2023-02-28T03:41:38;101762.13;;;-0.28;71.72
74403;BME280;62837;51.082;13.744;2023-02-28T03:44:14;101764.31;;;-0.30;71.87
74403;BME280;62837;51.082;13.744;2023-02-28T03:46:52;101767.58;;;-0.36;71.87
74403;BME280;62837;51.082;13.744;2023-02-28T03:49:26;101765.98;;;-0.39;72.07
74403;BME280;62837;51.082;13.744;2023-02-28T03:52:01;101770.61;;;-0.41;72.24
74403;BME280;62837;51.082;13.744;2023-02-28T03:54:34;101770.16;;;-0.42;72.18
74403;BME280;62837;51.082;13.744;2023-02-28T03:57:10;101771.28;;;-0.44;71.97
74403;BME280;62837;51.082;13.744;2023-02-28T03:59:46;101776.20;;;-0.46;72.14
74403;BME280;62837;51.082;13.744;2023-02-28T04:02:18;101777.77;;;-0.49;72.13
74403;BME280;62837;51.082;13.744;2023-02-28T04:04:49;101776.33;;;-0.51;72.33
74403;BME280;62837;51.082;13.744;2023-02-28T04:07:20;101781.30;;;-0.52;72.07
74403;BME280;62837;51.082;13.744;2023-02-28T04:09:51;101782.63;;;-0.60;72.28
74403;BME280;62837;51.082;13.744;2023-02-28T04:12:22;101786.16;;;-0.63;72.51
74403;BME280;62837;51.082;13.744;2023-02-28T04:14:53;101785.58;;;-0.66;72.45
74403;BME280;62837;51.082;13.744;2023-02-28T04:17:24;101794.21;;;-0.70;72.42
74403;BME280;62837;51.082;13.744;2023-02-28T04:19:55;101795.08;;;-0.73;72.56
74403;BME280;62837;51.082;13.744;2023-02-28T04:22:27;101791.45;;;-0.76;72.68
74403;BME280;62837;51.082;13.744;2023-02-28T04:24:58;101794.42;;;-0.81;72.94
74403;BME280;62837;51.082;13.744;2023-02-28T04:27:28;101795.14;;;-0.82;72.94
74403;BME280;62837;51.082;13.744;2023-02-28T04:30:01;101803.12;;;-0.83;73.22
74403;BME280;62837;51.082;13.744;2023-02-28T04:32:32;101800.84;;;-0.84;73.59
74403;BME280;62837;51.082;13.744;2023-02-28T04:35:03;101807.48;;;-0.85;73.14
74403;BME280;62837;51.082;13.744;2023-02-28T04:37:34;101807.27;;;-0.87;73.81
74403;BME280;62837;51.082;13.744;2023-02-28T04:40:08;101806.09;;;-0.84;73.84
74403;BME280;62837;51.082;13.744;2023-02-28T04:42:39;101804.17;;;-0.83;73.46
74403;BME280;62837;51.082;13.744;2023-02-28T04:45:11;101804.44;;;-0.80;73.97
74403;BME280;62837;51.082;13.744;2023-02-28T04:47:42;101805.23;;;-0.77;73.35
74403;BME280;62837;51.082;13.744;2023-02-28T04:50:13;101804.72;;;-0.76;73.38
74403;BME280;62837;51.082;13.744;2023-02-28T04:52:44;101802.25;;;-0.74;73.00
74403;BME280;62837;51.082;13.744;2023-02-28T04:55:15;101805.34;;;-0.73;73.22
74403;BME280;62837;51.082;13.744;2023-02-28T04:57:45;101802.64;;;-0.71;73.73
74403;BME280;62837;51.082;13.744;2023-02-28T05:00:17;101803.63;;;-0.70;73.43
74403;BME280;62837;51.082;13.744;2023-02-28T05:02:48;101802.08;;;-0.69;73.37
74403;BME280;62837;51.082;13.744;2023-02-28T05:05:19;101804.96;;;-0.71;73.22
74403;BME280;62837;51.082;13.744;2023-02-28T05:07:50;101804.70;;;-0.74;73.08
74403;BME280;62837;51.082;13.744;2023-02-28T05:10:21;101805.88;;;-0.76;73.16
74403;BME280;62837;51.082;13.744;2023-02-28T05:12:51;101804.85;;;-0.75;73.18
74403;BME280;62837;51.082;13.744;2023-02-28T05:15:22;101804.58;;;-0.78;73.09
74403;BME280;62837;51.082;13.744;2023-02-28T05:17:53;101810.90;;;-0.80;73.30
74403;BME280;62837;51.082;13.744;2023-02-28T05:20:24;101811.56;;;-0.81;73.53
74403;BME280;62837;51.082;13.744;2023-02-28T05:22:55;101814.10;;;-0.81;73.59
74403;BME280;62837;51.082;13.744;2023-02-28T05:25:26;101815.98;;;-0.82;73.12
74403;BME280;62837;51.082;13.744;2023-02-28T05:27:57;101819.77;;;-0.86;73.00
74403;BME280;62837;51.082;13.744;2023-02-28T05:30:28;101822.69;;;-0.90;72.78
74403;BME280;62837;51.082;13.744;2023-02-28T05:32:59;101822.50;;;-0.99;72.75
74403;BME280;62837;51.082;13.744;2023-02-28T05:35:30;101819.88;;;-1.11;72.90
74403;BME280;62837;51.082;13.744;2023-02-28T05:38:00;101823.33;;;-1.20;73.34
74403;BME280;62837;51.082;13.744;2023-02-28T05:40:32;101822.96;;;-1.27;73.63
74403;BME280;62837;51.082;13.744;2023-02-28T05:43:03;101825.84;;;-1.29;73.48
74403;BME280;62837;51.082;13.744;2023-02-28T05:45:34;101825.42;;;-1.35;73.27
74403;BME280;62837;51.082;13.744;2023-02-28T05:48:07;101826.74;;;-1.39;73.34
74403;BME280;62837;51.082;13.744;2023-02-28T05:50:38;101827.11;;;-1.44;73.72
74403;BME280;62837;51.082;13.744;2023-02-28T05:53:09;101828.02;;;-1.46;73.77
74403;BME280;62837;51.082;13.744;2023-02-28T05:55:40;101825.32;;;-1.46;73.87
74403;BME280;62837;51.082;13.744;2023-02-28T05:58:11;101830.73;;;-1.50;73.80
74403;BME280;62837;51.082;13.744;2023-02-28T06:00:42;101829.14;;;-1.53;73.95
74403;BME280;62837;51.082;13.744;2023-02-28T06:03:12;101832.90;;;-1.58;73.80
74403;BME280;62837;51.082;13.744;2023-02-28T06:05:43;101839.79;;;-1.60;73.72
74403;BME280;62837;51.082;13.744;2023-02-28T06:08:14;101839.55;;;-1.62;73.98
74403;BME280;62837;51.082;13.744;2023-02-28T06:10:45;101842.50;;;-1.64;73.94
74403;BME280;62837;51.082;13.744;2023-02-28T06:13:15;101844.70;;;-1.66;74.05
74403;BME280;62837;51.082;13.744;2023-02-28T06:15:46;101843.35;;;-1.66;74.30
74403;BME280;62837;51.082;13.744;2023-02-28T06:18:17;101844.12;;;-1.62;73.54
74403;BME280;62837;51.082;13.744;2023-02-28T06:20:53;101847.30;;;-1.60;73.48
74403;BME280;62837;51.082;13.744;2023-02-28T06:23:24;101851.31;;;-1.64;73.81
74403;BME280;62837;51.082;13.744;2023-02-28T06:25:55;101841.26;;;-1.79;73.48
74403;BME280;62837;51.082;13.744;2023-02-28T06:28:27;101852.98;;;-1.70;74.09
74403;BME280;62837;51.082;13.744;2023-02-28T06:30:58;101860.90;;;-1.65;73.79
74403;BME280;62837;51.082;13.744;2023-02-28T06:33:29;101857.18;;;-1.62;74.02
74403;BME280;62837;51.082;13.744;2023-02-28T06:36:00;101862.45;;;-1.55;74.06
74403;BME280;62837;51.082;13.744;2023-02-28T06:38:31;101869.17;;;-1.50;73.63
74403;BME280;62837;51.082;13.744;2023-02-28T06:41:03;101874.23;;;-1.50;73.27
74403;BME280;62837;51.082;13.744;2023-02-28T06:43:36;101878.20;;;-1.52;73.29
74403;BME280;62837;51.082;13.744;2023-02-28T06:46:10;101883.75;;;-1.54;72.96
74403;BME280;62837;51.082;13.744;2023-02-28T06:48:42;101883.77;;;-1.50;73.08
74403;BME280;62837;51.082;13.744;2023-02-28T06:51:15;101885.39;;;-1.45;74.11
74403;BME280;62837;51.082;13.744;2023-02-28T06:53:47;101891.83;;;-1.37;74.20
74403;BME280;62837;51.082;13.744;2023-02-28T06:56:19;101889.96;;;-1.36;73.77
74403;BME280;62837;51.082;13.744;2023-02-28T06:58:51;101893.60;;;-1.29;74.55
74403;BME280;62837;51.082;13.744;2023-02-28T07:01:22;101899.82;;;-0.65;85.97
74403;BME280;62837;51.082;13.744;2023-02-28T07:03:54;101899.48;;;0.68;89.97
74403;BME280;62837;51.082;13.744;2023-02-28T07:06:26;101896.48;;;0.92;79.45
74403;BME280;62837;51.082;13.744;2023-02-28T07:08:59;101892.48;;;0.73;75.81
74403;BME280;62837;51.082;13.744;2023-02-28T07:11:30;101899.84;;;0.53;73.78
74403;BME280;62837;51.082;13.744;2023-02-28T07:14:01;101901.36;;;0.43;73.36
74403;BME280;62837;51.082;13.744;2023-02-28T07:16:32;101900.59;;;0.40;72.94
74403;BME280;62837;51.082;13.744;2023-02-28T07:19:03;101900.09;;;0.66;72.27
74403;BME280;62837;51.082;13.744;2023-02-28T07:21:35;101902.63;;;1.00;71.82
74403;BME280;62837;51.082;13.744;2023-02-28T07:24:07;101897.73;;;1.35;70.43
74403;BME280;62837;51.082;13.744;2023-02-28T07:26:38;101891.99;;;1.58;69.04
74403;BME280;62837;51.082;13.744;2023-02-28T07:29:08;101893.58;;;1.82;69.30
74403;BME280;62837;51.082;13.744;2023-02-28T07:31:39;101891.67;;;1.94;68.40
74403;BME280;62837;51.082;13.744;2023-02-28T07:34:10;101892.23;;;1.97;67.69
74403;BME280;62837;51.082;13.744;2023-02-28T07:36:41;101890.60;;;2.02;67.05
74403;BME280;62837;51.082;13.744;2023-02-28T07:39:12;101893.61;;;2.27;67.19
74403;BME280;62837;51.082;13.744;2023-02-28T07:41:42;101892.14;;;2.45;66.60
74403;BME280;62837;51.082;13.744;2023-02-28T07:44:13;101894.89;;;2.54;66.56
74403;BME280;62837;51.082;13.744;2023-02-28T07:46:44;101894.25;;;2.57;66.21
74403;BME280;62837;51.082;13.744;2023-02-28T07:49:15;101899.42;;;2.63;66.65
74403;BME280;62837;51.082;13.744;2023-02-28T07:51:45;101896.31;;;2.66;65.62
74403;BME280;62837;51.082;13.744;2023-02-28T07:54:16;101899.00;;;2.68;65.29
74403;BME280;62837;51.082;13.744;2023-02-28T07:56:47;101897.77;;;2.69;65.71
74403;BME280;62837;51.082;13.744;2023-02-28T07:59:17;101897.15;;;2.75;64.49
74403;BME280;62837;51.082;13.744;2023-02-28T08:01:48;101897.86;;;2.76;63.87
74403;BME280;62837;51.082;13.744;2023-02-28T08:04:20;101900.34;;;2.75;64.90
74403;BME280;62837;51.082;13.744;2023-02-28T08:06:50;101899.04;;;2.80;64.43
74403;BME280;62837;51.082;13.744;2023-02-28T08:09:22;101900.86;;;2.79;64.53
74403;BME280;62837;51.082;13.744;2023-02-28T08:11:53;101901.04;;;2.90;64.18
74403;BME280;62837;51.082;13.744;2023-02-28T08:14:23;101899.97;;;2.96;63.94
74403;BME280;62837;51.082;13.744;2023-02-28T08:16:54;101901.23;;;3.12;64.87
74403;BME280;62837;51.082;13.744;2023-02-28T08:19:25;101903.65;;;3.43;64.71
74403;BME280;62837;51.082;13.744;2023-02-28T08:21:56;101899.05;;;3.57;63.79
74403;BME280;62837;51.082;13.744;2023-02-28T08:24:27;101892.98;;;3.62;62.64
74403;BME280;62837;51.082;13.744;2023-02-28T08:26:58;101896.87;;;3.49;62.07
74403;BME280;62837;51.082;13.744;2023-02-28T08:29:29;101900.48;;;3.38;62.97
74403;BME280;62837;51.082;13.744;2023-02-28T08:32:00;101898.55;;;3.32;62.93
74403;BME280;62837;51.082;13.744;2023-02-28T08:34:31;101900.74;;;3.26;62.74
74403;BME280;62837;51.082;13.744;2023-02-28T08:37:01;101898.70;;;3.22;62.47
74403;BME280;62837;51.082;13.744;2023-02-28T08:39:35;101896.42;;;3.21;62.59
74403;BME280;62837;51.082;13.744;2023-02-28T08:42:06;101896.49;;;3.21;62.64
74403;BME280;62837;51.082;13.744;2023-02-28T08:44:39;101899.73;;;3.16;62.41
74403;BME280;62837;51.082;13.744;2023-02-28T08:47:10;101903.02;;;3.14;62.11
74403;BME280;62837;51.082;13.744;2023-02-28T08:49:41;101909.23;;;3.14;61.76
74403;BME280;62837;51.082;13.744;2023-02-28T08:52:11;101900.45;;;3.13;60.92
74403;BME280;62837;51.082;13.744;2023-02-28T08:54:42;101909.03;;;3.22;60.03
74403;BME280;62837;51.082;13.744;2023-02-28T08:57:13;101908.06;;;3.27;58.85
74403;BME280;62837;51.082;13.744;2023-02-28T08:59:44;101909.36;;;3.24;57.97
74403;BME280;62837;51.082;13.744;2023-02-28T09:02:15;101903.33;;;3.18;57.33
74403;BME280;62837;51.082;13.744;2023-02-28T09:04:46;101904.30;;;3.22;57.78
74403;BME280;62837;51.082;13.744;2023-02-28T09:07:16;101903.82;;;3.28;57.40
74403;BME280;62837;51.082;13.744;2023-02-28T09:09:47;101903.46;;;3.29;58.18
74403;BME280;62837;51.082;13.744;2023-02-28T09:12:25;101899.84;;;3.34;56.85
74403;BME280;62837;51.082;13.744;2023-02-28T09:14:56;101901.15;;;3.32;56.90
74403;BME280;62837;51.082;13.744;2023-02-28T09:17:27;101900.69;;;3.37;57.76
74403;BME280;62837;51.082;13.744;2023-02-28T09:19:59;101903.83;;;3.50;57.24
74403;BME280;62837;51.082;13.744;2023-02-28T09:22:30;101898.73;;;3.64;56.95
74403;BME280;62837;51.082;13.744;2023-02-28T09:25:00;101896.59;;;3.87;56.73
74403;BME280;62837;51.082;13.744;2023-02-28T09:27:31;101893.39;;;4.15;53.37
74403;BME280;62837;51.082;13.744;2023-02-28T09:30:02;101897.48;;;4.45;54.94
74403;BME280;62837;51.082;13.744;2023-02-28T09:32:33;101895.42;;;4.83;53.64
74403;BME280;62837;51.082;13.744;2023-02-28T09:35:05;101890.61;;;4.94;52.98
74403;BME280;62837;51.082;13.744;2023-02-28T09:37:36;101886.63;;;5.03;52.45
74403;BME280;62837;51.082;13.744;2023-02-28T09:40:11;101895.85;;;5.15;51.35
74403;BME280;62837;51.082;13.744;2023-02-28T09:42:42;101884.80;;;5.19;51.73
74403;BME280;62837;51.082;13.744;2023-02-28T09:45:22;101887.43;;;5.27;50.27
74403;BME280;62837;51.082;13.744;2023-02-28T09:47:56;101888.45;;;5.32;48.37
74403;BME280;62837;51.082;13.744;2023-02-28T09:50:35;101884.70;;;5.19;48.89
74403;BME280;62837;51.082;13.744;2023-02-28T09:53:13;101881.35;;;5.31;49.35
74403;BME280;62837;51.082;13.744;2023-02-28T09:55:48;101883.09;;;5.23;48.79
74403;BME280;62837;51.082;13.744;2023-02-28T09:58:26;101893.47;;;5.08;48.57
74403;BME280;62837;51.082;13.744;2023-02-28T10:01:03;101891.58;;;4.79;48.05
74403;BME280;62837;51.082;13.744;2023-02-28T10:03:40;101885.63;;;4.51;49.52
74403;BME280;62837;51.082;13.744;2023-02-28T10:06:17;101891.52;;;4.51;48.48
74403;BME280;62837;51.082;13.744;2023-02-28T10:08:52;101892.80;;;4.25;48.23
74403;BME280;62837;51.082;13.744;2023-02-28T10:11:28;101898.39;;;3.99;47.78
74403;BME280;62837;51.082;13.744;2023-02-28T10:14:02;101897.96;;;3.72;48.53
74403;BME280;62837;51.082;13.744;2023-02-28T10:16:38;101900.94;;;3.49;48.90
74403;BME280;62837;51.082;13.744;2023-02-28T10:19:17;101893.18;;;3.37;50.15
74403;BME280;62837;51.082;13.744;2023-02-28T10:21:54;101898.62;;;3.37;50.38
74403;BME280;62837;51.082;13.744;2023-02-28T10:24:30;101895.48;;;3.29;50.06
74403;BME280;62837;51.082;13.744;2023-02-28T10:27:12;101899.18;;;3.23;50.05
74403;BME280;62837;51.082;13.744;2023-02-28T10:29:44;101896.27;;;3.26;50.57
74403;BME280;62837;51.082;13.744;2023-02-28T10:32:17;101905.29;;;3.32;50.81
74403;BME280;62837;51.082;13.744;2023-02-28T10:34:52;101905.23;;;3.34;49.66
74403;BME280;62837;51.082;13.744;2023-02-28T10:37:26;101904.68;;;3.28;49.87
74403;BME280;62837;51.082;13.744;2023-02-28T10:39:57;101904.02;;;3.37;50.60
74403;BME280;62837;51.082;13.744;2023-02-28T10:42:29;101905.34;;;3.57;49.62
74403;BME280;62837;51.082;13.744;2023-02-28T10:45:14;101904.60;;;3.54;49.85
74403;BME280;62837;51.082;13.744;2023-02-28T10:47:55;101896.14;;;3.50;49.12
74403;BME280;62837;51.082;13.744;2023-02-28T10:50:32;101896.59;;;3.43;50.19
74403;BME280;62837;51.082;13.744;2023-02-28T10:53:16;101896.90;;;3.43;51.15
74403;BME280;62837;51.082;13.744;2023-02-28T10:55:58;101891.45;;;3.43;50.75
74403;BME280;62837;51.082;13.744;2023-02-28T10:58:31;101891.40;;;3.43;50.76
74403;BME280;62837;51.082;13.744;2023-02-28T11:01:02;101886.16;;;3.52;50.29
74403;BME280;62837;51.082;13.744;2023-02-28T11:03:35;101882.04;;;3.65;51.11
74403;BME280;62837;51.082;13.744;2023-02-28T11:06:15;101881.50;;;3.65;49.30
74403;BME280;62837;51.082;13.744;2023-02-28T11:08:49;101881.45;;;3.59;49.78
74403;BME280;62837;51.082;13.744;2023-02-28T11:11:21;101880.77;;;3.52;49.38
74403;BME280;62837;51.082;13.744;2023-02-28T11:13:56;101872.89;;;3.44;49.98
74403;BME280;62837;51.082;13.744;2023-02-28T11:16:36;101876.77;;;3.44;49.58
74403;BME280;62837;51.082;13.744;2023-02-28T11:19:18;101871.53;;;3.65;50.23
74403;BME280;62837;51.082;13.744;2023-02-28T11:21:54;101875.35;;;3.88;48.79
74403;BME280;62837;51.082;13.744;2023-02-28T11:24:28;101868.70;;;3.80;49.40
74403;BME280;62837;51.082;13.744;2023-02-28T11:27:00;101868.09;;;3.74;48.95
74403;BME280;62837;51.082;13.744;2023-02-28T11:29:32;101868.58;;;3.78;48.61
74403;BME280;62837;51.082;13.744;2023-02-28T11:32:09;101860.31;;;3.94;49.34
74403;BME280;62837;51.082;13.744;2023-02-28T11:34:44;101855.34;;;4.01;49.33
74403;BME280;62837;51.082;13.744;2023-02-28T11:37:17;101844.89;;;4.02;48.90
74403;BME280;62837;51.082;13.744;2023-02-28T11:39:48;101845.77;;;3.96;48.08
74403;BME280;62837;51.082;13.744;2023-02-28T11:42:45;101844.02;;;3.99;48.62
74403;BME280;62837;51.082;13.744;2023-02-28T11:45:43;101842.21;;;4.09;48.86
74403;BME280;62837;51.082;13.744;2023-02-28T11:48:20;101835.77;;;4.24;49.61
74403;BME280;62837;51.082;13.744;2023-02-28T11:51:00;101831.70;;;4.26;49.81
74403;BME280;62837;51.082;13.744;2023-02-28T11:53:53;101832.02;;;4.17;49.20
74403;BME280;62837;51.082;13.744;2023-02-28T11:56:32;101832.76;;;4.05;49.77
74403;BME280;62837;51.082;13.744;2023-02-28T11:59:13;101830.03;;;4.09;49.58
74403;BME280;62837;51.082;13.744;2023-02-28T12:02:01;101826.23;;;4.14;49.24
74403;BME280;62837;51.082;13.744;2023-02-28T12:04:42;101835.09;;;4.13;49.17
74403;BME280;62837;51.082;13.744;2023-02-28T12:07:20;101833.25;;;4.16;49.10
74403;BME280;62837;51.082;13.744;2023-02-28T12:10:04;101831.96;;;4.19;49.31
74403;BME280;62837;51.082;13.744;2023-02-28T12:12:46;101828.98;;;4.30;49.97
74403;BME280;62837;51.082;13.744;2023-02-28T12:15:37;101824.04;;;4.32;48.73
74403;BME280;62837;51.082;13.744;2023-02-28T12:18:21;101819.49;;;4.29;48.96
74403;BME280;62837;51.082;13.744;2023-02-28T12:21:02;101819.30;;;4.28;48.32
74403;BME280;62837;51.082;13.744;2023-02-28T12:23:56;101825.80;;;4.24;48.95
74403;BME280;62837;51.082;13.744;2023-02-28T12:26:36;101819.73;;;4.33;49.40
74403;BME280;62837;51.082;13.744;2023-02-28T12:29:14;101821.99;;;4.40;48.27
74403;BME280;62837;51.082;13.744;2023-02-28T12:31:51;101826.63;;;4.35;48.24
74403;BME280;62837;51.082;13.744;2023-02-28T12:34:27;101826.16;;;4.25;48.61
74403;BME280;62837;51.082;13.744;2023-02-28T12:37:01;101828.64;;;4.23;48.77
74403;BME280;62837;51.082;13.744;2023-02-28T12:39:37;101831.06;;;4.13;48.74
74403;BME280;62837;51.082;13.744;2023-02-28T12:42:22;101831.95;;;4.10;48.66
74403;BME280;62837;51.082;13.744;2023-02-28T12:44:58;101828.23;;;4.00;48.97
74403;BME280;62837;51.082;13.744;2023-02-28T12:47:30;101824.40;;;3.93;49.40
74403;BME280;62837;51.082;13.744;2023-02-28T12:50:04;101820.90;;;3.93;50.06
74403;BME280;62837;51.082;13.744;2023-02-28T12:52:43;101816.98;;;4.03;50.16
74403;BME280;62837;51.082;13.744;2023-02-28T12:55:21;101822.10;;;4.18;49.43
74403;BME280;62837;51.082;13.744;2023-02-28T12:58:05;101819.64;;;4.17;48.81
74403;BME280;62837;51.082;13.744;2023-02-28T13:00:46;101816.41;;;4.20;48.93
74403;BME280;62837;51.082;13.744;2023-02-28T13:03:46;101814.52;;;4.13;48.07
74403;BME280;62837;51.082;13.744;2023-02-28T13:06:32;101812.43;;;3.93;47.46
74403;BME280;62837;51.082;13.744;2023-02-28T13:09:12;101810.08;;;3.85;48.02
74403;BME280;62837;51.082;13.744;2023-02-28T13:11:46;101811.50;;;3.85;48.73
74403;BME280;62837;51.082;13.744;2023-02-28T13:14:29;101808.91;;;3.92;48.98
74403;BME280;62837;51.082;13.744;2023-02-28T13:17:11;101808.60;;;3.98;48.36
74403;BME280;62837;51.082;13.744;2023-02-28T13:19:45;101806.71;;;3.98;48.64
74403;BME280;62837;51.082;13.744;2023-02-28T13:22:20;101808.95;;;4.04;48.62
74403;BME280;62837;51.082;13.744;2023-02-28T13:35:16;101804.60;;;4.17;48.86
74403;BME280;62837;51.082;13.744;2023-02-28T13:38:37;101798.48;;;4.18;48.09
74403;BME280;62837;51.082;13.744;2023-02-28T13:41:42;101795.04;;;4.20;48.23